Time;durP1;ratioP1;P1;durP2;ratioP2;P2;SDS_P1;SDS_P2;PMS_P1;PMS_P2;Temp;Humidity;BMP_temperature;BMP_pressure;BME280_temperature;BME280_humidity;BME280_pressure;Samples;Min_cycle;Max_cycle;Signal;HPM_P1;HPM_P2
2022/09/12 00:02:11;;;;;;;1.20;1.20;;;;;;;;;;1846163;76;26742;-46
2022/09/12 00:04:38;;;;;;;1.32;1.32;;;;;;;;;;1859780;76;26383;-40
2022/09/12 00:07:06;;;;;;;1.02;1.02;;;;;;;;;;1855296;77;26246;-48
2022/09/12 00:09:33;;;;;;;0.98;0.98;;;;;;;;;;1848788;76;26268;-44
2022/09/12 00:12:00;;;;;;;1.00;1.00;;;;;;;;;;1849217;76;25835;-47
2022/09/12 00:14:27;;;;;;;1.30;1.20;;;;;;;;;;1852514;76;26722;-46
2022/09/12 00:16:56;;;;;;;1.10;1.10;;;;;;;;;;1846813;76;26250;-44
2022/09/12 00:19:24;;;;;;;1.00;1.00;;;;;;;;;;1840315;77;26299;-42
2022/09/12 00:21:51;;;;;;;0.90;0.90;;;;;;;;;;1843223;77;26399;-44
2022/09/12 00:24:18;;;;;;;1.00;1.00;;;;;;;;;;1851049;76;26664;-46
2022/09/12 00:26:46;;;;;;;0.93;0.93;;;;;;;;;;1841593;76;26254;-44
2022/09/12 00:29:17;;;;;;;1.00;1.00;;;;;;;;;;1843146;76;26281;-43
2022/09/12 00:31:44;;;;;;;1.00;1.00;;;;;;;;;;1846080;76;26304;-42
2022/09/12 00:34:12;;;;;;;1.07;1.05;;;;;;;;;;1842986;77;26242;-44
2022/09/12 00:36:40;;;;;;;1.05;1.00;;;;;;;;;;1829181;76;26360;-45
2022/09/12 00:39:08;;;;;;;1.00;1.00;;;;;;;;;;1841926;77;26763;-44
2022/09/12 00:41:36;;;;;;;1.00;1.00;;;;;;;;;;1844546;77;26291;-43
2022/09/12 00:44:05;;;;;;;1.20;1.20;;;;;;;;;;1841936;77;26246;-46
2022/09/12 00:46:37;;;;;;;0.95;0.95;;;;;;;;;;1841984;76;26265;-44
2022/09/12 00:49:08;;;;;;;1.10;1.10;;;;;;;;;;1851766;76;26733;-45
2022/09/12 00:51:36;;;;;;;1.10;1.10;;;;;;;;;;1852284;77;26713;-45
2022/09/12 00:54:05;;;;;;;0.85;0.85;;;;;;;;;;1845755;76;26659;-44
2022/09/12 00:56:32;;;;;;;1.10;1.10;;;;;;;;;;1851202;76;26726;-45
2022/09/12 00:59:04;;;;;;;0.90;0.90;;;;;;;;;;1851794;76;26756;-43
2022/09/12 01:01:31;;;;;;;1.00;1.00;;;;;;;;;;1871187;75;26321;-46
2022/09/12 01:03:59;;;;;;;0.90;0.90;;;;;;;;;;1895372;75;26780;-47
2022/09/12 01:06:28;;;;;;;1.45;0.90;;;;;;;;;;1898857;75;26247;-42
2022/09/12 01:08:56;;;;;;;0.88;0.88;;;;;;;;;;1899398;75;26821;-43
2022/09/12 01:11:23;;;;;;;1.70;0.90;;;;;;;;;;1894585;75;26726;-42
2022/09/12 01:13:51;;;;;;;0.98;0.98;;;;;;;;;;1890460;75;26254;-43
2022/09/12 01:16:18;;;;;;;0.90;0.90;;;;;;;;;;1886275;75;26369;-44
2022/09/12 01:18:50;;;;;;;1.00;1.00;;;;;;;;;;1885274;75;26317;-42
2022/09/12 01:21:22;;;;;;;1.00;1.00;;;;;;;;;;1893112;75;26314;-46
2022/09/12 01:23:50;;;;;;;1.10;1.10;;;;;;;;;;1880323;75;26705;-45
2022/09/12 01:26:25;;;;;;;0.90;0.90;;;;;;;;;;1888538;75;26762;-44
2022/09/12 01:29:00;;;;;;;1.00;1.00;;;;;;;;;;1888087;75;26312;-43
2022/09/12 01:31:35;;;;;;;1.00;1.00;;;;;;;;;;1888146;75;26263;-48
2022/09/12 01:34:04;;;;;;;0.95;0.95;;;;;;;;;;1886374;75;26624;-42
2022/09/12 01:36:33;;;;;;;1.00;1.00;;;;;;;;;;1889330;75;26315;-47
2022/09/12 01:39:20;;;;;;;1.80;1.00;;;;;;;;;;1895780;75;26226;-43
2022/09/12 01:42:05;;;;;;;1.00;1.00;;;;;;;;;;1888264;75;26720;-47
2022/09/12 01:44:49;;;;;;;1.00;1.00;;;;;;;;;;1887665;75;26357;-48
2022/09/12 01:47:21;;;;;;;1.10;1.10;;;;;;;;;;1874677;75;26267;-41
2022/09/12 01:49:53;;;;;;;0.95;0.95;;;;;;;;;;1903735;75;26902;-41
2022/09/12 01:52:22;;;;;;;1.02;0.93;;;;;;;;;;1897587;75;26819;-41
2022/09/12 01:54:51;;;;;;;0.88;0.88;;;;;;;;;;1881323;75;26945;-46
2022/09/12 01:57:23;;;;;;;0.98;0.98;;;;;;;;;;1866568;75;26324;-44
2022/09/12 01:59:52;;;;;;;1.12;1.10;;;;;;;;;;1813513;75;27259;-46
2022/09/12 02:02:30;;;;;;;0.98;0.98;;;;;;;;;;1887105;75;26686;-45
2022/09/12 02:04:59;;;;;;;0.93;0.93;;;;;;;;;;1879387;75;26317;-50
2022/09/12 02:07:28;;;;;;;1.10;1.00;;;;;;;;;;1866916;75;26254;-46
2022/09/12 02:10:12;;;;;;;1.00;1.00;;;;;;;;;;1883734;75;26242;-43
2022/09/12 02:12:43;;;;;;;1.02;1.02;;;;;;;;;;1878477;75;26305;-40
2022/09/12 02:15:12;;;;;;;1.07;1.07;;;;;;;;;;1869093;75;26192;-40
2022/09/12 02:17:41;;;;;;;0.80;0.80;;;;;;;;;;1900721;75;26269;-46
2022/09/12 02:20:10;;;;;;;1.00;1.00;;;;;;;;;;1867099;75;26255;-46
2022/09/12 02:22:37;;;;;;;0.90;0.90;;;;;;;;;;1879403;75;26396;-46
2022/09/12 02:25:07;;;;;;;1.00;1.00;;;;;;;;;;1880578;75;26508;-43
2022/09/12 02:27:51;;;;;;;1.05;1.05;;;;;;;;;;1899709;75;26183;-43
2022/09/12 02:30:18;;;;;;;1.00;1.00;;;;;;;;;;1886066;75;26293;-40
2022/09/12 02:32:50;;;;;;;1.00;1.00;;;;;;;;;;1905033;75;26316;-47
2022/09/12 02:35:22;;;;;;;0.98;0.98;;;;;;;;;;1895044;75;26385;-44
2022/09/12 02:38:03;;;;;;;0.90;0.90;;;;;;;;;;1881572;75;26884;-45
2022/09/12 02:40:30;;;;;;;1.05;1.05;;;;;;;;;;1886348;75;26257;-44
2022/09/12 02:42:58;;;;;;;0.98;0.98;;;;;;;;;;1873585;74;26267;-42
2022/09/12 02:45:26;;;;;;;0.80;0.80;;;;;;;;;;1896373;75;26290;-44
2022/09/12 02:47:55;;;;;;;1.90;1.00;;;;;;;;;;1891086;75;26560;-47
2022/09/12 02:50:22;;;;;;;0.90;0.90;;;;;;;;;;1876933;75;26242;-44
2022/09/12 02:52:52;;;;;;;1.00;1.00;;;;;;;;;;1878094;75;26301;-45
2022/09/12 02:55:20;;;;;;;0.90;0.90;;;;;;;;;;1871990;75;26813;-44
2022/09/12 02:57:47;;;;;;;1.00;1.00;;;;;;;;;;1875917;75;26243;-43
2022/09/12 03:00:14;;;;;;;0.95;0.95;;;;;;;;;;1877323;75;26270;-46
2022/09/12 03:02:55;;;;;;;1.00;1.00;;;;;;;;;;1888817;75;26306;-45
2022/09/12 03:05:24;;;;;;;1.05;1.05;;;;;;;;;;1884621;75;26262;-43
2022/09/12 03:08:02;;;;;;;0.90;0.90;;;;;;;;;;1897993;75;26339;-40
2022/09/12 03:10:34;;;;;;;1.00;1.00;;;;;;;;;;1898982;75;26261;-46
2022/09/12 03:13:19;;;;;;;0.90;0.90;;;;;;;;;;1896597;75;26260;-45
2022/09/12 03:15:57;;;;;;;0.85;0.85;;;;;;;;;;1870862;75;26270;-45
2022/09/12 03:18:41;;;;;;;1.07;1.07;;;;;;;;;;1887663;75;26244;-43
2022/09/12 03:21:12;;;;;;;1.00;1.00;;;;;;;;;;1897303;75;26685;-46
2022/09/12 03:23:50;;;;;;;0.90;0.90;;;;;;;;;;1906674;75;26788;-45
2022/09/12 03:26:22;;;;;;;0.95;0.95;;;;;;;;;;1900332;75;26717;-43
2022/09/12 03:28:49;;;;;;;1.00;1.00;;;;;;;;;;1906314;75;26258;-42
2022/09/12 03:31:18;;;;;;;1.10;1.10;;;;;;;;;;1898675;75;26231;-48
2022/09/12 03:33:45;;;;;;;1.02;1.02;;;;;;;;;;1907940;75;26308;-46
2022/09/12 03:36:14;;;;;;;1.27;0.90;;;;;;;;;;1897309;75;26316;-46
2022/09/12 03:38:41;;;;;;;0.90;0.90;;;;;;;;;;1891913;74;26230;-43
2022/09/12 03:41:09;;;;;;;0.90;0.90;;;;;;;;;;1893414;75;26257;-44
2022/09/12 03:43:36;;;;;;;0.90;0.90;;;;;;;;;;1888207;75;26189;-45
2022/09/12 03:46:03;;;;;;;1.00;1.00;;;;;;;;;;1883902;75;26954;-43
2022/09/12 03:48:31;;;;;;;1.00;1.00;;;;;;;;;;1871660;75;26266;-45
2022/09/12 03:51:05;;;;;;;0.90;0.90;;;;;;;;;;1874037;75;26259;-51
2022/09/12 03:53:33;;;;;;;1.10;1.00;;;;;;;;;;1881056;75;26250;-48
2022/09/12 03:56:00;;;;;;;0.98;0.98;;;;;;;;;;1899413;75;26349;-49
2022/09/12 03:58:29;;;;;;;1.05;1.05;;;;;;;;;;1897886;75;26239;-42
2022/09/12 04:00:57;;;;;;;1.00;1.00;;;;;;;;;;1908353;75;26262;-45
2022/09/12 04:03:24;;;;;;;0.90;0.90;;;;;;;;;;1903399;75;26310;-46
2022/09/12 04:05:51;;;;;;;1.00;1.00;;;;;;;;;;1903601;75;26340;-45
2022/09/12 04:08:19;;;;;;;0.98;0.98;;;;;;;;;;1900663;75;26274;-45
2022/09/12 04:10:46;;;;;;;1.35;1.00;;;;;;;;;;1898042;75;26230;-46
2022/09/12 04:13:13;;;;;;;1.20;1.10;;;;;;;;;;1880910;75;26246;-49
2022/09/12 04:15:40;;;;;;;0.93;0.80;;;;;;;;;;1903225;75;26239;-47
2022/09/12 04:18:07;;;;;;;0.80;0.80;;;;;;;;;;1894083;75;26262;-46
2022/09/12 04:20:35;;;;;;;0.90;0.90;;;;;;;;;;1906440;75;26328;-41
2022/09/12 04:23:03;;;;;;;0.90;0.90;;;;;;;;;;1903189;75;26735;-46
2022/09/12 04:25:30;;;;;;;1.15;1.15;;;;;;;;;;1898297;75;26719;-49
2022/09/12 04:27:57;;;;;;;1.10;1.10;;;;;;;;;;1893088;75;26328;-43
2022/09/12 04:30:25;;;;;;;0.90;0.90;;;;;;;;;;1892061;75;26231;-45
2022/09/12 04:32:52;;;;;;;1.05;1.05;;;;;;;;;;1897610;75;26242;-43
2022/09/12 04:35:19;;;;;;;1.15;1.15;;;;;;;;;;1901461;75;26400;-46
2022/09/12 04:37:46;;;;;;;0.88;0.88;;;;;;;;;;1884154;75;26348;-46
2022/09/12 04:40:14;;;;;;;1.10;1.10;;;;;;;;;;1897534;75;26294;-42
2022/09/12 04:42:41;;;;;;;1.10;1.10;;;;;;;;;;1897693;75;26312;-42
2022/09/12 04:45:09;;;;;;;1.07;1.07;;;;;;;;;;1900942;75;26246;-44
2022/09/12 04:47:36;;;;;;;0.93;0.93;;;;;;;;;;1901132;75;26250;-45
2022/09/12 04:50:04;;;;;;;2.75;1.10;;;;;;;;;;1877937;75;26712;-45
2022/09/12 04:52:31;;;;;;;0.90;0.90;;;;;;;;;;1880309;75;26231;-46
2022/09/12 04:54:58;;;;;;;1.10;1.10;;;;;;;;;;1891569;75;26280;-44
2022/09/12 04:57:26;;;;;;;0.93;0.93;;;;;;;;;;1907459;75;26316;-44
2022/09/12 04:59:53;;;;;;;2.00;1.15;;;;;;;;;;1886582;75;26238;-47
2022/09/12 05:02:20;;;;;;;0.90;0.90;;;;;;;;;;1900554;75;26346;-44
2022/09/12 05:04:47;;;;;;;1.35;0.90;;;;;;;;;;1882749;75;26936;-42
2022/09/12 05:07:15;;;;;;;1.40;1.00;;;;;;;;;;1889100;75;26807;-43
2022/09/12 05:09:42;;;;;;;1.55;1.10;;;;;;;;;;1900023;75;26306;-45
2022/09/12 05:12:09;;;;;;;0.90;0.90;;;;;;;;;;1887286;75;26238;-45
2022/09/12 05:14:37;;;;;;;1.20;1.20;;;;;;;;;;1879824;75;26266;-44
2022/09/12 05:17:04;;;;;;;1.00;1.00;;;;;;;;;;1884774;75;26303;-43
2022/09/12 05:19:32;;;;;;;1.25;1.20;;;;;;;;;;1893713;75;26314;-42
2022/09/12 05:21:59;;;;;;;1.40;1.10;;;;;;;;;;1879894;75;26680;-42
2022/09/12 05:24:27;;;;;;;2.02;1.00;;;;;;;;;;1891354;75;26255;-46
2022/09/12 05:26:54;;;;;;;1.25;1.10;;;;;;;;;;1896759;75;26291;-46
2022/09/12 05:29:23;;;;;;;1.20;1.20;;;;;;;;;;1895274;75;26250;-46
2022/09/12 05:31:51;;;;;;;2.40;1.37;;;;;;;;;;1892293;75;27487;-46
2022/09/12 05:34:19;;;;;;;1.95;1.20;;;;;;;;;;1898346;75;26227;-45
2022/09/12 05:36:47;;;;;;;1.20;1.20;;;;;;;;;;1905850;75;26267;-45
2022/09/12 05:39:14;;;;;;;1.20;1.20;;;;;;;;;;1873144;75;26328;-49
2022/09/12 05:41:41;;;;;;;7.72;1.20;;;;;;;;;;1886534;75;26268;-42
2022/09/12 05:44:10;;;;;;;1.27;1.00;;;;;;;;;;1890165;73;26212;-47
2022/09/12 05:46:39;;;;;;;1.40;1.10;;;;;;;;;;1889554;75;26248;-44
2022/09/12 05:49:08;;;;;;;1.15;1.10;;;;;;;;;;1897254;73;26855;-43
2022/09/12 05:51:37;;;;;;;1.20;1.20;;;;;;;;;;1876873;75;26814;-47
2022/09/12 05:54:06;;;;;;;1.62;1.10;;;;;;;;;;1881891;75;26303;-45
2022/09/12 05:56:35;;;;;;;1.50;1.30;;;;;;;;;;1890152;75;26239;-47
2022/09/12 05:59:04;;;;;;;1.10;1.10;;;;;;;;;;1889284;75;26266;-46
2022/09/12 06:01:32;;;;;;;1.25;1.00;;;;;;;;;;1897840;75;26313;-45
2022/09/12 06:04:00;;;;;;;1.65;1.20;;;;;;;;;;1898653;75;26282;-48
2022/09/12 06:06:28;;;;;;;1.27;1.10;;;;;;;;;;1895858;75;26603;-46
2022/09/12 06:08:57;;;;;;;2.52;1.20;;;;;;;;;;1892669;75;26266;-51
2022/09/12 06:11:26;;;;;;;1.05;1.05;;;;;;;;;;1898316;75;26325;-46
2022/09/12 06:13:54;;;;;;;1.10;1.10;;;;;;;;;;1904938;75;26263;-46
2022/09/12 06:16:24;;;;;;;1.40;1.40;;;;;;;;;;1904938;75;26273;-46
2022/09/12 06:18:53;;;;;;;1.25;1.15;;;;;;;;;;1892666;75;26372;-49
2022/09/12 06:21:20;;;;;;;1.85;1.20;;;;;;;;;;1897319;75;27178;-48
2022/09/12 06:23:48;;;;;;;1.10;1.10;;;;;;;;;;1892446;75;26344;-42
2022/09/12 06:26:17;;;;;;;1.20;1.10;;;;;;;;;;1887081;75;26725;-47
2022/09/12 06:28:44;;;;;;;2.90;1.47;;;;;;;;;;1896238;75;26322;-56
2022/09/12 06:31:13;;;;;;;1.55;1.40;;;;;;;;;;1892819;75;26196;-45
2022/09/12 06:33:42;;;;;;;2.27;1.20;;;;;;;;;;1899656;75;26295;-48
2022/09/12 06:36:11;;;;;;;4.33;1.22;;;;;;;;;;1897535;75;26227;-45
2022/09/12 06:38:38;;;;;;;2.10;1.20;;;;;;;;;;1904585;74;26184;-43
2022/09/12 06:41:06;;;;;;;1.30;1.20;;;;;;;;;;1900071;75;26234;-43
2022/09/12 06:43:34;;;;;;;1.85;1.10;;;;;;;;;;1891314;74;26187;-44
2022/09/12 06:46:02;;;;;;;1.30;1.30;;;;;;;;;;1897044;75;26246;-45
2022/09/12 06:48:29;;;;;;;2.00;1.30;;;;;;;;;;1894018;75;26316;-49
2022/09/12 06:51:04;;;;;;;1.57;1.20;;;;;;;;;;1895805;75;26270;-46
2022/09/12 06:53:38;;;;;;;3.65;1.30;;;;;;;;;;1890122;75;26255;-46
2022/09/12 06:56:06;;;;;;;1.72;1.40;;;;;;;;;;1886154;75;26243;-47
2022/09/12 06:58:34;;;;;;;1.22;1.22;;;;;;;;;;1899382;75;27384;-44
2022/09/12 07:01:05;;;;;;;1.12;1.12;;;;;;;;;;1900345;75;26304;-47
2022/09/12 07:03:33;;;;;;;1.30;1.20;;;;;;;;;;1893826;75;26368;-51
2022/09/12 07:06:05;;;;;;;1.95;1.20;;;;;;;;;;1873247;75;26259;-46
2022/09/12 07:08:33;;;;;;;1.85;1.10;;;;;;;;;;1879000;76;26251;-49
2022/09/12 07:11:02;;;;;;;1.10;1.10;;;;;;;;;;1882032;76;26248;-46
2022/09/12 07:13:29;;;;;;;1.22;1.22;;;;;;;;;;1881911;76;26242;-46
2022/09/12 07:15:58;;;;;;;2.08;1.20;;;;;;;;;;1877213;75;26273;-47
2022/09/12 07:18:26;;;;;;;1.20;1.20;;;;;;;;;;1880421;76;26282;-46
2022/09/12 07:20:53;;;;;;;1.00;1.00;;;;;;;;;;1880438;76;26299;-46
2022/09/12 07:23:20;;;;;;;1.30;1.20;;;;;;;;;;1866063;76;26210;-43
2022/09/12 07:25:55;;;;;;;3.37;1.20;;;;;;;;;;1868248;75;26234;-45
2022/09/12 07:28:23;;;;;;;1.02;1.02;;;;;;;;;;1860509;75;26669;-40
2022/09/12 07:30:52;;;;;;;1.30;1.20;;;;;;;;;;1863103;76;26873;-40
2022/09/12 07:33:20;;;;;;;1.10;1.10;;;;;;;;;;1879643;76;26712;-47
2022/09/12 07:35:48;;;;;;;1.57;1.25;;;;;;;;;;1877970;76;26261;-44
2022/09/12 07:38:16;;;;;;;2.00;1.10;;;;;;;;;;1868713;76;26259;-40
2022/09/12 07:40:43;;;;;;;1.02;1.02;;;;;;;;;;1877016;76;26324;-42
2022/09/12 07:43:10;;;;;;;1.17;1.17;;;;;;;;;;1858117;76;26930;-46
2022/09/12 07:45:41;;;;;;;1.05;1.05;;;;;;;;;;1868524;76;26664;-46
2022/09/12 07:48:07;;;;;;;1.67;1.10;;;;;;;;;;1870386;76;26304;-46
2022/09/12 07:50:35;;;;;;;1.77;1.00;;;;;;;;;;1858978;76;26803;-45
2022/09/12 07:53:04;;;;;;;1.47;1.10;;;;;;;;;;1882170;76;26813;-45
2022/09/12 07:55:31;;;;;;;1.17;1.17;;;;;;;;;;1854875;76;26730;-48
2022/09/12 07:57:58;;;;;;;1.05;1.05;;;;;;;;;;1883717;76;26259;-43
2022/09/12 08:00:33;;;;;;;1.12;1.10;;;;;;;;;;1876587;76;26399;-43
2022/09/12 08:02:55;;;;;;;1.22;1.20;;;;;;;;;;1863674;76;26293;-48
2022/09/12 08:05:22;;;;;;;0.90;0.90;;;;;;;;;;1860810;76;27069;-54
2022/09/12 08:07:50;;;;;;;1.00;1.00;;;;;;;;;;1869246;75;26835;-42
2022/09/12 08:10:17;;;;;;;1.42;1.32;;;;;;;;;;1867341;76;26320;-44
2022/09/12 08:12:44;;;;;;;1.05;1.05;;;;;;;;;;1875280;76;26250;-44
2022/09/12 08:15:12;;;;;;;1.10;1.10;;;;;;;;;;1878604;76;26247;-42
2022/09/12 08:17:40;;;;;;;1.20;1.10;;;;;;;;;;1884654;75;26211;-42
2022/09/12 08:20:08;;;;;;;1.00;1.00;;;;;;;;;;1881413;76;26318;-47
2022/09/12 08:22:35;;;;;;;1.12;0.90;;;;;;;;;;1876851;76;26325;-45
2022/09/12 08:25:02;;;;;;;1.00;1.00;;;;;;;;;;1876358;76;26815;-46
2022/09/12 08:27:30;;;;;;;1.00;1.00;;;;;;;;;;1859487;76;26302;-47
2022/09/12 08:29:57;;;;;;;1.00;1.00;;;;;;;;;;1885530;76;26373;-48
2022/09/12 08:32:24;;;;;;;1.00;1.00;;;;;;;;;;1872865;76;26314;-46
2022/09/12 08:34:52;;;;;;;0.90;0.90;;;;;;;;;;1883725;76;26336;-46
2022/09/12 08:37:19;;;;;;;1.27;1.20;;;;;;;;;;1879551;76;26379;-43
2022/09/12 08:39:46;;;;;;;1.00;1.00;;;;;;;;;;1866758;76;26238;-45
2022/09/12 08:42:16;;;;;;;1.10;1.10;;;;;;;;;;1867072;76;26251;-42
2022/09/12 08:44:48;;;;;;;1.00;1.00;;;;;;;;;;1879357;76;26259;-46
2022/09/12 08:47:26;;;;;;;1.00;1.00;;;;;;;;;;1838060;75;26764;-46
2022/09/12 08:50:10;;;;;;;0.90;0.90;;;;;;;;;;1844873;76;26814;-44
2022/09/12 08:53:05;;;;;;;0.90;0.90;;;;;;;;;;1873899;76;26183;-48
2022/09/12 08:55:30;;;;;;;0.95;0.95;;;;;;;;;;1852195;76;26739;-46
2022/09/12 08:57:59;;;;;;;0.90;0.90;;;;;;;;;;1853730;76;26336;-49
2022/09/12 09:00:31;;;;;;;1.00;1.00;;;;;;;;;;1875690;76;26742;-44
2022/09/12 09:03:00;;;;;;;0.88;0.88;;;;;;;;;;1885732;76;26276;-43
2022/09/12 09:05:38;;;;;;;2.05;1.10;;;;;;;;;;1885753;75;26276;-47
2022/09/12 09:08:07;;;;;;;0.90;0.90;;;;;;;;;;1885104;75;27163;-41
2022/09/12 09:10:53;;;;;;;0.80;0.80;;;;;;;;;;1895915;75;26297;-42
2022/09/12 09:14:46;;;;;;;1.77;1.00;;;;;;;;;;1902947;75;26717;-42
2022/09/12 09:15:52;;;;;;;0.90;0.90;;;;;;;;;;1902249;75;26269;-45
2022/09/12 09:18:22;;;;;;;0.88;0.88;;;;;;;;;;1903572;75;26261;-48
2022/09/12 09:21:03;;;;;;;0.80;0.80;;;;;;;;;;1896761;75;26344;-44
2022/09/12 09:23:41;;;;;;;0.88;0.88;;;;;;;;;;1896517;75;26707;-48
2022/09/12 09:26:13;;;;;;;0.88;0.88;;;;;;;;;;1897811;75;26253;-48
2022/09/12 09:28:51;;;;;;;1.00;0.90;;;;;;;;;;1903748;75;26310;-45
2022/09/12 09:31:20;;;;;;;0.75;0.75;;;;;;;;;;1903678;75;26259;-44
2022/09/12 09:33:57;;;;;;;0.90;0.90;;;;;;;;;;1897167;75;26778;-53
2022/09/12 09:36:32;;;;;;;0.80;0.80;;;;;;;;;;1907282;75;26332;-53
2022/09/12 09:39:03;;;;;;;0.82;0.82;;;;;;;;;;1887710;74;26262;-49
2022/09/12 09:41:32;;;;;;;0.90;0.90;;;;;;;;;;1895366;75;28106;-48
2022/09/12 09:44:01;;;;;;;0.80;0.80;;;;;;;;;;1901723;75;26559;-46
2022/09/12 09:46:29;;;;;;;0.90;0.90;;;;;;;;;;1904399;75;26199;-45
2022/09/12 09:48:58;;;;;;;1.00;1.00;;;;;;;;;;1893842;75;26723;-47
2022/09/12 09:51:27;;;;;;;1.47;0.80;;;;;;;;;;1894986;75;26778;-48
2022/09/12 09:54:01;;;;;;;0.93;0.93;;;;;;;;;;1902324;75;26243;-46
2022/09/12 09:56:31;;;;;;;0.90;0.90;;;;;;;;;;1898191;75;26267;-50
2022/09/12 09:59:08;;;;;;;0.90;0.90;;;;;;;;;;1905014;75;27853;-45
2022/09/12 10:01:37;;;;;;;0.98;0.98;;;;;;;;;;1893115;75;26207;-43
2022/09/12 10:04:06;;;;;;;0.85;0.85;;;;;;;;;;1903371;75;26316;-44
2022/09/12 10:06:33;;;;;;;0.90;0.90;;;;;;;;;;1888475;75;26794;-50
2022/09/12 10:09:05;;;;;;;0.72;0.72;;;;;;;;;;1901217;75;26317;-44
2022/09/12 10:11:32;;;;;;;0.80;0.80;;;;;;;;;;1878118;75;26259;-44
2022/09/12 10:14:00;;;;;;;0.90;0.90;;;;;;;;;;1888599;75;26243;-44
2022/09/12 10:16:28;;;;;;;0.90;0.90;;;;;;;;;;1903961;75;26783;-50
2022/09/12 10:18:56;;;;;;;0.85;0.85;;;;;;;;;;1902187;75;26325;-43
2022/09/12 10:21:28;;;;;;;1.10;1.10;;;;;;;;;;1901252;75;26247;-42
2022/09/12 10:24:00;;;;;;;0.85;0.85;;;;;;;;;;1900226;75;26286;-45
2022/09/12 10:26:29;;;;;;;0.90;0.90;;;;;;;;;;1905116;75;26227;-51
2022/09/12 10:28:56;;;;;;;0.70;0.70;;;;;;;;;;1906458;75;26305;-42
2022/09/12 10:31:28;;;;;;;0.90;0.90;;;;;;;;;;1904616;75;26231;-44
2022/09/12 10:33:54;;;;;;;0.95;0.95;;;;;;;;;;1903448;75;26303;-45
2022/09/12 10:36:23;;;;;;;0.68;0.68;;;;;;;;;;1902288;75;26235;-45
2022/09/12 10:38:58;;;;;;;0.90;0.90;;;;;;;;;;1898149;75;26304;-46
2022/09/12 10:41:25;;;;;;;0.88;0.88;;;;;;;;;;1900656;75;26274;-45
2022/09/12 10:43:52;;;;;;;0.90;0.90;;;;;;;;;;1900473;75;26308;-42
2022/09/12 10:46:21;;;;;;;0.80;0.80;;;;;;;;;;1889142;75;26288;-44
2022/09/12 10:48:49;;;;;;;0.90;0.90;;;;;;;;;;1902315;75;26367;-46
2022/09/12 10:51:24;;;;;;;0.90;0.90;;;;;;;;;;1903747;75;26734;-43
2022/09/12 10:53:53;;;;;;;1.87;0.90;;;;;;;;;;1902694;75;26239;-44
2022/09/12 10:56:21;;;;;;;0.93;0.90;;;;;;;;;;1898234;75;26713;-49
2022/09/12 10:58:50;;;;;;;1.07;0.98;;;;;;;;;;1897944;75;26314;-46
2022/09/12 11:01:36;;;;;;;4.20;1.27;;;;;;;;;;1906602;75;26761;-46
2022/09/12 11:04:21;;;;;;;1.92;0.90;;;;;;;;;;1900336;75;26356;-42
2022/09/12 11:06:59;;;;;;;2.12;1.10;;;;;;;;;;1907306;75;27469;-44
2022/09/12 11:09:43;;;;;;;3.72;1.10;;;;;;;;;;1892938;75;26692;-46
2022/09/12 11:12:12;;;;;;;0.90;0.90;;;;;;;;;;1902078;75;26239;-44
2022/09/12 11:14:44;;;;;;;1.12;1.12;;;;;;;;;;1885341;75;26375;-42
2022/09/12 11:17:16;;;;;;;1.15;1.10;;;;;;;;;;1902940;75;26802;-44
2022/09/12 11:19:50;;;;;;;2.52;0.95;;;;;;;;;;1888387;75;26227;-39
2022/09/12 11:22:31;;;;;;;1.32;1.10;;;;;;;;;;1887282;75;26326;-41
2022/09/12 11:25:06;;;;;;;1.25;1.15;;;;;;;;;;1898790;75;26518;-37
2022/09/12 11:27:35;;;;;;;1.17;1.07;;;;;;;;;;1898272;75;26239;-44
2022/09/12 11:30:05;;;;;;;1.07;1.07;;;;;;;;;;1902550;75;26324;-38
2022/09/12 11:32:42;;;;;;;0.90;0.90;;;;;;;;;;1881124;75;26552;-41
2022/09/12 11:35:20;;;;;;;3.12;1.17;;;;;;;;;;1895932;75;26247;-42
2022/09/12 11:37:52;;;;;;;0.95;0.90;;;;;;;;;;1877544;75;27165;-43
2022/09/12 11:40:21;;;;;;;0.88;0.88;;;;;;;;;;1887582;75;26694;-44
2022/09/12 11:42:50;;;;;;;1.02;0.90;;;;;;;;;;1886991;75;26352;-43
2022/09/12 11:45:22;;;;;;;0.90;0.90;;;;;;;;;;1894376;75;26212;-46
2022/09/12 11:47:51;;;;;;;1.00;1.00;;;;;;;;;;1891374;75;26274;-44
2022/09/12 11:50:19;;;;;;;0.90;0.90;;;;;;;;;;1890258;75;26300;-38
2022/09/12 11:52:47;;;;;;;1.00;1.00;;;;;;;;;;1887286;75;26406;-49
2022/09/12 11:55:19;;;;;;;1.02;1.02;;;;;;;;;;1895430;75;27259;-47
2022/09/12 11:57:50;;;;;;;1.10;1.00;;;;;;;;;;1900107;75;26200;-40
2022/09/12 12:00:19;;;;;;;1.87;1.07;;;;;;;;;;1887284;75;26736;-40
2022/09/12 12:02:51;;;;;;;0.90;0.90;;;;;;;;;;1909105;75;26685;-44
2022/09/12 12:05:36;;;;;;;1.30;1.22;;;;;;;;;;1891048;75;26238;-45
2022/09/12 12:08:05;;;;;;;1.57;0.98;;;;;;;;;;1891295;75;26340;-42
2022/09/12 12:10:34;;;;;;;0.95;0.95;;;;;;;;;;1887172;75;26326;-44
2022/09/12 12:13:03;;;;;;;0.90;0.90;;;;;;;;;;1900718;75;25854;-44
2022/09/12 12:15:31;;;;;;;1.00;1.00;;;;;;;;;;1888658;75;26701;-41
2022/09/12 12:18:08;;;;;;;1.60;1.00;;;;;;;;;;1885579;75;26411;-46
2022/09/12 12:20:36;;;;;;;1.00;1.00;;;;;;;;;;1886043;75;26295;-43
2022/09/12 12:23:03;;;;;;;0.90;0.90;;;;;;;;;;1892763;75;26312;-49
2022/09/12 12:25:32;;;;;;;1.12;1.00;;;;;;;;;;1893091;75;26771;-44
2022/09/12 12:28:05;;;;;;;0.95;0.95;;;;;;;;;;1882536;75;26710;-45
2022/09/12 12:30:33;;;;;;;0.90;0.90;;;;;;;;;;1886349;75;26345;-45
2022/09/12 12:33:12;;;;;;;0.95;0.93;;;;;;;;;;1889879;75;26257;-45
2022/09/12 12:35:48;;;;;;;0.98;0.98;;;;;;;;;;1896195;75;26925;-45
2022/09/12 12:38:14;;;;;;;0.90;0.90;;;;;;;;;;1907653;75;26299;-44
2022/09/12 12:40:41;;;;;;;1.55;0.82;;;;;;;;;;1879652;75;26269;-44
2022/09/12 12:43:10;;;;;;;1.00;1.00;;;;;;;;;;1893861;75;26712;-45
2022/09/12 12:45:39;;;;;;;1.25;1.00;;;;;;;;;;1888391;75;26703;-49
2022/09/12 12:48:11;;;;;;;0.80;0.80;;;;;;;;;;1878805;75;26801;-48
2022/09/12 12:50:38;;;;;;;0.80;0.80;;;;;;;;;;1885863;75;26215;-45
2022/09/12 12:53:16;;;;;;;0.90;0.90;;;;;;;;;;1883412;75;26257;-46
2022/09/12 12:55:45;;;;;;;0.88;0.88;;;;;;;;;;1882467;75;26422;-47
2022/09/12 12:58:24;;;;;;;0.80;0.80;;;;;;;;;;1895629;75;26304;-49
2022/09/12 13:01:02;;;;;;;0.80;0.80;;;;;;;;;;1900170;75;26349;-47
2022/09/12 13:03:31;;;;;;;0.90;0.90;;;;;;;;;;1894113;75;26320;-49
2022/09/12 13:06:03;;;;;;;1.00;1.00;;;;;;;;;;1893492;75;26930;-50
2022/09/12 13:08:31;;;;;;;1.65;0.90;;;;;;;;;;1885996;75;27172;-50
2022/09/12 13:11:00;;;;;;;0.90;0.90;;;;;;;;;;1902214;75;26266;-48
2022/09/12 13:13:35;;;;;;;0.95;0.95;;;;;;;;;;1890975;75;26247;-51
2022/09/12 13:16:02;;;;;;;0.90;0.90;;;;;;;;;;1897336;75;26281;-46
2022/09/12 13:18:31;;;;;;;0.88;0.88;;;;;;;;;;1897490;75;26258;-45
2022/09/12 13:21:15;;;;;;;0.90;0.90;;;;;;;;;;1894433;75;26304;-46
2022/09/12 13:23:43;;;;;;;0.95;0.95;;;;;;;;;;1902500;75;26344;-43
2022/09/12 13:26:12;;;;;;;0.80;0.80;;;;;;;;;;1906423;75;26215;-43
2022/09/12 13:28:40;;;;;;;2.00;0.90;;;;;;;;;;1877714;75;26347;-42
2022/09/12 13:31:20;;;;;;;0.93;0.93;;;;;;;;;;1902170;75;26739;-50
2022/09/12 13:33:49;;;;;;;0.95;0.95;;;;;;;;;;1906830;75;26293;-43
2022/09/12 13:36:33;;;;;;;0.80;0.80;;;;;;;;;;1897430;75;26332;-43
2022/09/12 13:39:19;;;;;;;0.90;0.90;;;;;;;;;;1902507;74;26257;-46
2022/09/12 13:42:06;;;;;;;0.88;0.88;;;;;;;;;;1897476;75;25551;-44
2022/09/12 13:44:35;;;;;;;0.85;0.85;;;;;;;;;;1887035;75;26627;-45
2022/09/12 13:47:03;;;;;;;0.90;0.90;;;;;;;;;;1887273;75;26588;-42
2022/09/12 13:49:34;;;;;;;1.00;1.00;;;;;;;;;;1891621;75;26247;-46
2022/09/12 13:52:06;;;;;;;1.00;1.00;;;;;;;;;;1901925;75;26206;-41
2022/09/12 13:54:36;;;;;;;1.00;1.00;;;;;;;;;;1891388;75;26254;-43
2022/09/12 13:57:04;;;;;;;0.80;0.80;;;;;;;;;;1884247;75;26297;-43
2022/09/12 13:59:43;;;;;;;0.90;0.90;;;;;;;;;;1891863;75;26890;-46
2022/09/12 14:02:19;;;;;;;0.82;0.82;;;;;;;;;;1902028;75;26263;-43
2022/09/12 14:07:34;;;;;;;0.93;0.93;;;;;;;;;;1877834;75;26758;-47
2022/09/12 14:10:03;;;;;;;0.82;0.82;;;;;;;;;;1898268;75;26699;-45
2022/09/12 14:12:32;;;;;;;0.80;0.80;;;;;;;;;;1893425;75;26639;-46
2022/09/12 14:15:00;;;;;;;1.07;1.07;;;;;;;;;;1908185;75;26309;-45
2022/09/12 14:17:30;;;;;;;2.50;0.90;;;;;;;;;;1906317;75;26274;-40
2022/09/12 14:20:00;;;;;;;1.00;1.00;;;;;;;;;;1900024;75;26340;-48
2022/09/12 14:22:28;;;;;;;0.90;0.90;;;;;;;;;;1894285;75;26573;-45
2022/09/12 14:24:58;;;;;;;0.93;0.93;;;;;;;;;;1908088;75;26844;-45
2022/09/12 14:27:27;;;;;;;1.37;0.90;;;;;;;;;;1904744;75;26215;-45
2022/09/12 14:30:02;;;;;;;1.75;1.00;;;;;;;;;;1904164;75;26525;-44
2022/09/12 14:32:29;;;;;;;1.57;0.80;;;;;;;;;;1902358;75;26282;-44
2022/09/12 14:35:13;;;;;;;0.80;0.80;;;;;;;;;;1898858;75;26308;-42
2022/09/12 14:37:41;;;;;;;0.90;0.90;;;;;;;;;;1872495;75;26292;-43
2022/09/12 14:40:22;;;;;;;0.82;0.82;;;;;;;;;;1875993;75;26230;-44
2022/09/12 14:42:50;;;;;;;0.80;0.80;;;;;;;;;;1883166;75;26844;-42
2022/09/12 14:45:19;;;;;;;2.05;0.90;;;;;;;;;;1873021;75;26371;-45
2022/09/12 14:47:48;;;;;;;0.98;0.98;;;;;;;;;;1888316;75;26195;-39
2022/09/12 14:50:16;;;;;;;0.80;0.80;;;;;;;;;;1885485;75;26620;-38
2022/09/12 14:52:43;;;;;;;1.00;1.00;;;;;;;;;;1902715;75;26328;-37
2022/09/12 14:55:24;;;;;;;0.90;0.90;;;;;;;;;;1898749;75;26316;-38
2022/09/12 14:57:53;;;;;;;0.90;0.90;;;;;;;;;;1906255;75;26316;-43
2022/09/12 15:00:22;;;;;;;0.90;0.90;;;;;;;;;;1896790;75;26252;-44
2022/09/12 15:02:50;;;;;;;0.90;0.90;;;;;;;;;;1904644;75;26244;-49
2022/09/12 15:05:19;;;;;;;1.00;1.00;;;;;;;;;;1908018;75;26786;-44